sensor_id;sensor_type;location;lat;lon;timestamp;pressure;altitude;pressure_sealevel;temperature;humidity
75996;BME280;64681;49.738;9.004;2023-04-24T00:00:55;98362.28;;;11.51;75.44
75996;BME280;64681;49.738;9.004;2023-04-24T00:03:27;98367.91;;;11.46;75.50
75996;BME280;64681;49.738;9.004;2023-04-24T00:05:54;98365.56;;;11.67;75.42
75996;BME280;64681;49.738;9.004;2023-04-24T00:08:20;98361.84;;;11.76;75.53
75996;BME280;64681;49.738;9.004;2023-04-24T00:10:46;98360.56;;;11.66;75.33
75996;BME280;64681;49.738;9.004;2023-04-24T00:13:11;98367.97;;;11.76;75.43
75996;BME280;64681;49.738;9.004;2023-04-24T00:15:37;98364.25;;;11.84;74.88
75996;BME280;64681;49.738;9.004;2023-04-24T00:18:03;98354.47;;;12.26;72.77
75996;BME280;64681;49.738;9.004;2023-04-24T00:20:29;98364.13;;;12.04;73.43
75996;BME280;64681;49.738;9.004;2023-04-24T00:22:55;98360.16;;;11.94;73.69
75996;BME280;64681;49.738;9.004;2023-04-24T00:25:21;98352.38;;;11.82;74.44
75996;BME280;64681;49.738;9.004;2023-04-24T00:27:46;98341.69;;;11.82;74.86
75996;BME280;64681;49.738;9.004;2023-04-24T00:30:12;98334.28;;;11.71;75.60
75996;BME280;64681;49.738;9.004;2023-04-24T00:32:38;98333.81;;;11.96;74.41
75996;BME280;64681;49.738;9.004;2023-04-24T00:35:04;98329.75;;;12.06;74.80
75996;BME280;64681;49.738;9.004;2023-04-24T00:37:31;98332.09;;;12.11;73.70
75996;BME280;64681;49.738;9.004;2023-04-24T00:39:57;98335.41;;;11.97;74.05
75996;BME280;64681;49.738;9.004;2023-04-24T00:42:23;98332.09;;;12.11;73.96
75996;BME280;64681;49.738;9.004;2023-04-24T00:44:49;98317.44;;;11.98;74.24
75996;BME280;64681;49.738;9.004;2023-04-24T00:47:15;98314.69;;;11.94;74.88
75996;BME280;64681;49.738;9.004;2023-04-24T00:49:41;98315.44;;;12.25;73.44
75996;BME280;64681;49.738;9.004;2023-04-24T00:52:07;98327.13;;;12.10;74.27
75996;BME280;64681;49.738;9.004;2023-04-24T00:54:35;98329.31;;;12.00;74.97
75996;BME280;64681;49.738;9.004;2023-04-24T00:57:02;98323.47;;;12.25;73.61
75996;BME280;64681;49.738;9.004;2023-04-24T00:59:29;98326.16;;;12.25;73.71
75996;BME280;64681;49.738;9.004;2023-04-24T01:01:55;98328.72;;;12.14;74.16
75996;BME280;64681;49.738;9.004;2023-04-24T01:04:21;98330.97;;;12.12;74.30
75996;BME280;64681;49.738;9.004;2023-04-24T01:06:48;98326.19;;;11.95;74.68
75996;BME280;64681;49.738;9.004;2023-04-24T01:09:16;98335.97;;;12.14;74.29
75996;BME280;64681;49.738;9.004;2023-04-24T01:11:43;98332.47;;;12.10;73.76
75996;BME280;64681;49.738;9.004;2023-04-24T01:14:09;98326.78;;;12.49;71.67
75996;BME280;64681;49.738;9.004;2023-04-24T01:16:35;98320.78;;;12.25;73.14
75996;BME280;64681;49.738;9.004;2023-04-24T01:19:01;98317.13;;;12.41;72.09
75996;BME280;64681;49.738;9.004;2023-04-24T01:21:30;98328.34;;;12.54;71.46
75996;BME280;64681;49.738;9.004;2023-04-24T01:23:56;98324.31;;;12.74;70.27
75996;BME280;64681;49.738;9.004;2023-04-24T01:26:23;98317.63;;;12.54;71.50
75996;BME280;64681;49.738;9.004;2023-04-24T01:28:49;98322.66;;;12.59;71.44
75996;BME280;64681;49.738;9.004;2023-04-24T01:31:15;98314.28;;;11.92;72.87
75996;BME280;64681;49.738;9.004;2023-04-24T01:33:41;98311.66;;;12.30;72.61
75996;BME280;64681;49.738;9.004;2023-04-24T01:36:10;98309.06;;;12.03;73.63
75996;BME280;64681;49.738;9.004;2023-04-24T01:38:36;98307.63;;;12.09;73.44
75996;BME280;64681;49.738;9.004;2023-04-24T01:41:02;98300.97;;;12.30;72.20
75996;BME280;64681;49.738;9.004;2023-04-24T01:43:28;98300.66;;;12.39;71.80
75996;BME280;64681;49.738;9.004;2023-04-24T01:45:54;98305.47;;;12.63;70.26
75996;BME280;64681;49.738;9.004;2023-04-24T01:48:20;98291.78;;;12.31;72.26
75996;BME280;64681;49.738;9.004;2023-04-24T01:50:45;98302.28;;;11.79;73.15
75996;BME280;64681;49.738;9.004;2023-04-24T01:53:12;98305.38;;;11.81;73.81
75996;BME280;64681;49.738;9.004;2023-04-24T01:55:38;98302.00;;;12.18;72.31
75996;BME280;64681;49.738;9.004;2023-04-24T01:58:03;98294.72;;;11.84;72.84
75996;BME280;64681;49.738;9.004;2023-04-24T02:00:29;98305.63;;;12.02;73.01
75996;BME280;64681;49.738;9.004;2023-04-24T02:02:55;98302.31;;;11.82;73.46
75996;BME280;64681;49.738;9.004;2023-04-24T02:05:21;98291.88;;;12.04;71.97
75996;BME280;64681;49.738;9.004;2023-04-24T02:07:46;98299.91;;;12.04;72.21
75996;BME280;64681;49.738;9.004;2023-04-24T02:10:12;98300.44;;;12.17;72.07
75996;BME280;64681;49.738;9.004;2023-04-24T02:12:37;98301.94;;;12.14;71.80
75996;BME280;64681;49.738;9.004;2023-04-24T02:15:03;98298.47;;;12.10;71.84
75996;BME280;64681;49.738;9.004;2023-04-24T02:17:30;98295.19;;;12.28;71.14
75996;BME280;64681;49.738;9.004;2023-04-24T02:19:56;98283.69;;;12.24;69.95
75996;BME280;64681;49.738;9.004;2023-04-24T02:22:22;98288.94;;;12.13;71.03
75996;BME280;64681;49.738;9.004;2023-04-24T02:24:47;98290.19;;;12.23;70.78
75996;BME280;64681;49.738;9.004;2023-04-24T02:27:13;98291.78;;;12.31;71.05
75996;BME280;64681;49.738;9.004;2023-04-24T02:29:39;98295.13;;;12.21;71.11
75996;BME280;64681;49.738;9.004;2023-04-24T02:32:04;98299.22;;;12.11;71.45
75996;BME280;64681;49.738;9.004;2023-04-24T02:34:30;98290.06;;;12.12;71.65
75996;BME280;64681;49.738;9.004;2023-04-24T02:36:55;98292.91;;;12.26;71.56
75996;BME280;64681;49.738;9.004;2023-04-24T02:39:21;98286.50;;;12.00;71.40
75996;BME280;64681;49.738;9.004;2023-04-24T02:41:47;98286.69;;;12.18;72.16
75996;BME280;64681;49.738;9.004;2023-04-24T02:44:12;98278.66;;;12.18;71.38
75996;BME280;64681;49.738;9.004;2023-04-24T02:46:38;98285.38;;;12.01;72.09
75996;BME280;64681;49.738;9.004;2023-04-24T02:49:03;98273.28;;;12.15;71.13
75996;BME280;64681;49.738;9.004;2023-04-24T02:51:29;98285.56;;;11.85;72.81
75996;BME280;64681;49.738;9.004;2023-04-24T02:53:55;98286.22;;;12.09;71.66
75996;BME280;64681;49.738;9.004;2023-04-24T02:56:20;98276.25;;;12.06;72.03
75996;BME280;64681;49.738;9.004;2023-04-24T02:58:46;98292.44;;;11.86;73.21
75996;BME280;64681;49.738;9.004;2023-04-24T03:01:12;98288.25;;;12.23;71.03
75996;BME280;64681;49.738;9.004;2023-04-24T03:03:38;98287.28;;;12.01;71.50
75996;BME280;64681;49.738;9.004;2023-04-24T03:06:05;98285.88;;;12.14;72.46
75996;BME280;64681;49.738;9.004;2023-04-24T03:08:31;98301.66;;;11.89;74.02
75996;BME280;64681;49.738;9.004;2023-04-24T03:10:57;98299.28;;;12.14;73.21
75996;BME280;64681;49.738;9.004;2023-04-24T03:13:23;98310.53;;;11.97;74.19
75996;BME280;64681;49.738;9.004;2023-04-24T03:15:48;98309.44;;;12.01;75.73
75996;BME280;64681;49.738;9.004;2023-04-24T03:18:14;98313.63;;;11.99;75.63
75996;BME280;64681;49.738;9.004;2023-04-24T03:20:40;98322.63;;;12.17;75.43
75996;BME280;64681;49.738;9.004;2023-04-24T03:23:05;98334.03;;;11.84;76.67
75996;BME280;64681;49.738;9.004;2023-04-24T03:25:31;98335.81;;;11.72;77.01
75996;BME280;64681;49.738;9.004;2023-04-24T03:27:56;98341.88;;;11.69;77.34
75996;BME280;64681;49.738;9.004;2023-04-24T03:30:22;98341.13;;;11.42;78.27
75996;BME280;64681;49.738;9.004;2023-04-24T03:32:47;98344.22;;;10.94;80.16
75996;BME280;64681;49.738;9.004;2023-04-24T03:35:13;98332.06;;;10.97;79.91
75996;BME280;64681;49.738;9.004;2023-04-24T03:37:38;98349.88;;;10.89;80.80
75996;BME280;64681;49.738;9.004;2023-04-24T03:40:04;98352.34;;;11.01;80.16
75996;BME280;64681;49.738;9.004;2023-04-24T03:42:31;98354.44;;;10.88;80.03
75996;BME280;64681;49.738;9.004;2023-04-24T03:44:56;98356.78;;;10.90;79.23
75996;BME280;64681;49.738;9.004;2023-04-24T03:47:22;98363.13;;;10.82;79.66
75996;BME280;64681;49.738;9.004;2023-04-24T03:49:47;98367.72;;;10.85;79.39
75996;BME280;64681;49.738;9.004;2023-04-24T03:52:13;98361.56;;;11.04;77.98
75996;BME280;64681;49.738;9.004;2023-04-24T03:54:38;98355.69;;;10.71;78.38
75996;BME280;64681;49.738;9.004;2023-04-24T03:57:04;98366.53;;;10.82;79.05
75996;BME280;64681;49.738;9.004;2023-04-24T03:59:30;98372.06;;;10.93;77.84
75996;BME280;64681;49.738;9.004;2023-04-24T04:01:56;98369.94;;;10.79;78.81
75996;BME280;64681;49.738;9.004;2023-04-24T04:04:21;98368.34;;;10.35;78.66
75996;BME280;64681;49.738;9.004;2023-04-24T04:06:47;98370.69;;;10.56;79.35
75996;BME280;64681;49.738;9.004;2023-04-24T04:09:13;98361.34;;;10.47;79.54
75996;BME280;64681;49.738;9.004;2023-04-24T04:11:39;98354.81;;;10.44;79.23
75996;BME280;64681;49.738;9.004;2023-04-24T04:14:04;98345.63;;;10.41;79.23
75996;BME280;64681;49.738;9.004;2023-04-24T04:16:30;98357.63;;;9.92;79.88
75996;BME280;64681;49.738;9.004;2023-04-24T04:18:56;98361.38;;;9.72;80.62
75996;BME280;64681;49.738;9.004;2023-04-24T04:21:22;98365.97;;;9.91;79.02
75996;BME280;64681;49.738;9.004;2023-04-24T04:23:47;98385.91;;;9.97;79.35
75996;BME280;64681;49.738;9.004;2023-04-24T04:26:13;98391.81;;;9.71;80.45
75996;BME280;64681;49.738;9.004;2023-04-24T04:28:39;98386.34;;;9.63;80.78
75996;BME280;64681;49.738;9.004;2023-04-24T04:31:05;98384.78;;;9.62;79.69
75996;BME280;64681;49.738;9.004;2023-04-24T04:33:30;98383.28;;;9.45;79.41
75996;BME280;64681;49.738;9.004;2023-04-24T04:35:56;98386.94;;;9.57;79.38
75996;BME280;64681;49.738;9.004;2023-04-24T04:38:24;98391.66;;;9.63;78.12
75996;BME280;64681;49.738;9.004;2023-04-24T04:40:51;98401.84;;;9.42;79.77
75996;BME280;64681;49.738;9.004;2023-04-24T04:43:17;98385.63;;;9.31;79.59
75996;BME280;64681;49.738;9.004;2023-04-24T04:45:43;98389.47;;;9.17;79.97
75996;BME280;64681;49.738;9.004;2023-04-24T04:48:09;98381.66;;;9.41;79.04
75996;BME280;64681;49.738;9.004;2023-04-24T04:50:37;98399.50;;;9.40;79.40
75996;BME280;64681;49.738;9.004;2023-04-24T04:53:03;98413.50;;;9.53;78.76
75996;BME280;64681;49.738;9.004;2023-04-24T04:55:30;98399.19;;;9.42;78.73
75996;BME280;64681;49.738;9.004;2023-04-24T04:57:56;98410.31;;;9.47;78.62
75996;BME280;64681;49.738;9.004;2023-04-24T05:00:22;98418.31;;;9.63;78.39
75996;BME280;64681;49.738;9.004;2023-04-24T05:02:50;98403.38;;;9.27;78.51
75996;BME280;64681;49.738;9.004;2023-04-24T05:05:16;98418.06;;;9.37;78.25
75996;BME280;64681;49.738;9.004;2023-04-24T05:07:43;98412.47;;;9.58;77.44
75996;BME280;64681;49.738;9.004;2023-04-24T05:10:09;98407.06;;;9.54;77.76
75996;BME280;64681;49.738;9.004;2023-04-24T05:12:35;98447.81;;;9.71;77.67
75996;BME280;64681;49.738;9.004;2023-04-24T05:15:00;98419.94;;;9.68;77.04
75996;BME280;64681;49.738;9.004;2023-04-24T05:17:26;98425.13;;;9.45;77.42
75996;BME280;64681;49.738;9.004;2023-04-24T05:19:54;98414.72;;;9.24;77.50
75996;BME280;64681;49.738;9.004;2023-04-24T05:22:20;98436.41;;;9.38;76.98
75996;BME280;64681;49.738;9.004;2023-04-24T05:24:47;98437.13;;;9.55;76.66
75996;BME280;64681;49.738;9.004;2023-04-24T05:27:13;98444.81;;;9.40;78.02
75996;BME280;64681;49.738;9.004;2023-04-24T05:29:39;98450.47;;;9.71;76.88
75996;BME280;64681;49.738;9.004;2023-04-24T05:32:06;98450.13;;;9.56;76.68
75996;BME280;64681;49.738;9.004;2023-04-24T05:34:32;98450.34;;;9.83;76.55
75996;BME280;64681;49.738;9.004;2023-04-24T05:36:57;98470.88;;;9.98;74.72
75996;BME280;64681;49.738;9.004;2023-04-24T05:39:23;98458.72;;;9.65;75.85
75996;BME280;64681;49.738;9.004;2023-04-24T05:41:50;98455.09;;;9.74;74.41
75996;BME280;64681;49.738;9.004;2023-04-24T05:44:18;98461.13;;;9.71;74.12
75996;BME280;64681;49.738;9.004;2023-04-24T05:46:44;98462.69;;;9.40;75.03
75996;BME280;64681;49.738;9.004;2023-04-24T05:49:09;98442.31;;;9.47;75.69
75996;BME280;64681;49.738;9.004;2023-04-24T05:51:35;98460.00;;;9.56;75.93
75996;BME280;64681;49.738;9.004;2023-04-24T05:54:00;98446.78;;;9.59;75.18
75996;BME280;64681;49.738;9.004;2023-04-24T05:56:27;98459.31;;;10.26;73.49
75996;BME280;64681;49.738;9.004;2023-04-24T05:58:52;98457.03;;;9.93;73.81
75996;BME280;64681;49.738;9.004;2023-04-24T06:01:18;98473.94;;;10.52;72.54
75996;BME280;64681;49.738;9.004;2023-04-24T06:03:45;98457.16;;;10.71;72.13
75996;BME280;64681;49.738;9.004;2023-04-24T06:06:10;98475.31;;;11.51;68.03
75996;BME280;64681;49.738;9.004;2023-04-24T06:08:36;98482.09;;;11.68;66.85
75996;BME280;64681;49.738;9.004;2023-04-24T06:11:01;98446.09;;;12.16;65.23
75996;BME280;64681;49.738;9.004;2023-04-24T06:13:27;98478.78;;;12.97;62.59
75996;BME280;64681;49.738;9.004;2023-04-24T06:15:53;98479.88;;;12.92;61.90
75996;BME280;64681;49.738;9.004;2023-04-24T06:18:18;98468.59;;;13.13;61.65
75996;BME280;64681;49.738;9.004;2023-04-24T06:20:45;98479.72;;;13.16;59.22
75996;BME280;64681;49.738;9.004;2023-04-24T06:23:11;98432.88;;;14.03;55.89
75996;BME280;64681;49.738;9.004;2023-04-24T06:25:37;98479.72;;;15.19;54.74
75996;BME280;64681;49.738;9.004;2023-04-24T06:28:03;98477.88;;;16.88;50.49
75996;BME280;64681;49.738;9.004;2023-04-24T06:30:28;98472.88;;;17.46;47.17
75996;BME280;64681;49.738;9.004;2023-04-24T06:32:54;98474.28;;;18.07;47.31
75996;BME280;64681;49.738;9.004;2023-04-24T06:35:20;98478.28;;;17.92;48.15
75996;BME280;64681;49.738;9.004;2023-04-24T06:37:46;98475.91;;;18.97;46.56
75996;BME280;64681;49.738;9.004;2023-04-24T06:40:14;98478.25;;;19.70;43.95
75996;BME280;64681;49.738;9.004;2023-04-24T06:42:39;98482.31;;;20.26;42.15
75996;BME280;64681;49.738;9.004;2023-04-24T06:45:05;98492.03;;;20.03;44.26
75996;BME280;64681;49.738;9.004;2023-04-24T06:47:31;98497.38;;;18.77;45.09
75996;BME280;64681;49.738;9.004;2023-04-24T06:49:57;98487.50;;;16.96;48.63
75996;BME280;64681;49.738;9.004;2023-04-24T06:52:23;98481.53;;;16.41;49.62
75996;BME280;64681;49.738;9.004;2023-04-24T06:54:48;98506.63;;;15.48;52.53
75996;BME280;64681;49.738;9.004;2023-04-24T06:57:14;98501.63;;;15.21;53.50
75996;BME280;64681;49.738;9.004;2023-04-24T06:59:41;98510.44;;;15.07;54.06
75996;BME280;64681;49.738;9.004;2023-04-24T07:02:07;98496.16;;;14.74;54.72
75996;BME280;64681;49.738;9.004;2023-04-24T07:04:32;98506.69;;;14.34;55.39
75996;BME280;64681;49.738;9.004;2023-04-24T07:06:58;98474.56;;;13.86;56.68
75996;BME280;64681;49.738;9.004;2023-04-24T07:09:25;98510.56;;;13.81;57.60
75996;BME280;64681;49.738;9.004;2023-04-24T07:11:52;98525.13;;;12.67;60.34
75996;BME280;64681;49.738;9.004;2023-04-24T07:14:18;98520.09;;;12.96;59.30
75996;BME280;64681;49.738;9.004;2023-04-24T07:16:44;98505.88;;;12.88;58.57
75996;BME280;64681;49.738;9.004;2023-04-24T07:19:10;98532.53;;;12.77;60.26
75996;BME280;64681;49.738;9.004;2023-04-24T07:21:36;98533.91;;;12.98;60.31
75996;BME280;64681;49.738;9.004;2023-04-24T07:24:02;98540.66;;;12.85;60.24
75996;BME280;64681;49.738;9.004;2023-04-24T07:26:29;98515.63;;;13.07;59.99
75996;BME280;64681;49.738;9.004;2023-04-24T07:28:55;98513.22;;;13.74;57.19
75996;BME280;64681;49.738;9.004;2023-04-24T07:31:21;98532.00;;;13.74;57.67
75996;BME280;64681;49.738;9.004;2023-04-24T07:33:47;98514.81;;;12.39;60.96
75996;BME280;64681;49.738;9.004;2023-04-24T07:36:13;98534.75;;;12.72;61.92
75996;BME280;64681;49.738;9.004;2023-04-24T07:38:47;98527.63;;;13.21;60.54
75996;BME280;64681;49.738;9.004;2023-04-24T07:41:13;98529.22;;;12.57;61.38
75996;BME280;64681;49.738;9.004;2023-04-24T07:43:39;98529.75;;;13.04;60.73
75996;BME280;64681;49.738;9.004;2023-04-24T07:46:06;98517.47;;;12.08;62.47
75996;BME280;64681;49.738;9.004;2023-04-24T07:48:32;98524.69;;;12.31;62.01
75996;BME280;64681;49.738;9.004;2023-04-24T07:50:57;98526.56;;;12.30;60.87
75996;BME280;64681;49.738;9.004;2023-04-24T07:53:23;98517.66;;;13.18;58.86
75996;BME280;64681;49.738;9.004;2023-04-24T07:55:48;98526.59;;;13.33;58.53
75996;BME280;64681;49.738;9.004;2023-04-24T07:58:14;98533.72;;;12.80;59.24
75996;BME280;64681;49.738;9.004;2023-04-24T08:00:40;98520.44;;;12.91;57.79
75996;BME280;64681;49.738;9.004;2023-04-24T08:03:06;98531.88;;;12.88;56.33
75996;BME280;64681;49.738;9.004;2023-04-24T08:05:31;98541.69;;;13.44;55.50
75996;BME280;64681;49.738;9.004;2023-04-24T08:07:58;98550.41;;;13.38;57.25
75996;BME280;64681;49.738;9.004;2023-04-24T08:10:24;98569.13;;;13.68;56.23
75996;BME280;64681;49.738;9.004;2023-04-24T08:12:49;98559.88;;;14.14;54.70
75996;BME280;64681;49.738;9.004;2023-04-24T08:15:15;98558.91;;;14.40;55.19
75996;BME280;64681;49.738;9.004;2023-04-24T08:17:41;98555.78;;;16.60;49.74
75996;BME280;64681;49.738;9.004;2023-04-24T08:20:08;98559.44;;;17.74;46.30
75996;BME280;64681;49.738;9.004;2023-04-24T08:22:39;98558.34;;;17.00;48.38
75996;BME280;64681;49.738;9.004;2023-04-24T08:25:06;98567.06;;;17.30;47.07
75996;BME280;64681;49.738;9.004;2023-04-24T08:27:31;98562.22;;;16.88;48.91
75996;BME280;64681;49.738;9.004;2023-04-24T08:29:57;98557.78;;;16.27;48.61
75996;BME280;64681;49.738;9.004;2023-04-24T08:32:24;98558.94;;;15.58;50.95
75996;BME280;64681;49.738;9.004;2023-04-24T08:34:49;98554.31;;;15.73;50.22
75996;BME280;64681;49.738;9.004;2023-04-24T08:37:17;98566.63;;;14.49;52.72
75996;BME280;64681;49.738;9.004;2023-04-24T08:39:43;98571.91;;;13.41;55.05
75996;BME280;64681;49.738;9.004;2023-04-24T08:42:11;98593.31;;;13.04;57.33
75996;BME280;64681;49.738;9.004;2023-04-24T08:44:36;98601.03;;;13.39;55.42
75996;BME280;64681;49.738;9.004;2023-04-24T08:47:03;98586.00;;;13.01;56.04
75996;BME280;64681;49.738;9.004;2023-04-24T08:49:29;98603.09;;;12.89;57.40
75996;BME280;64681;49.738;9.004;2023-04-24T08:51:55;98601.91;;;12.56;58.84
75996;BME280;64681;49.738;9.004;2023-04-24T08:54:21;98613.81;;;12.08;59.63
75996;BME280;64681;49.738;9.004;2023-04-24T08:56:48;98605.09;;;12.38;58.53
75996;BME280;64681;49.738;9.004;2023-04-24T08:59:15;98615.53;;;12.47;59.70
75996;BME280;64681;49.738;9.004;2023-04-24T09:01:42;98611.47;;;12.57;58.50
75996;BME280;64681;49.738;9.004;2023-04-24T09:04:11;98607.50;;;12.47;58.34
75996;BME280;64681;49.738;9.004;2023-04-24T09:06:39;98606.38;;;11.98;60.75
75996;BME280;64681;49.738;9.004;2023-04-24T09:09:05;98607.84;;;12.72;58.96
75996;BME280;64681;49.738;9.004;2023-04-24T09:11:31;98604.50;;;13.09;57.23
75996;BME280;64681;49.738;9.004;2023-04-24T09:14:00;98613.25;;;12.76;58.63
75996;BME280;64681;49.738;9.004;2023-04-24T09:16:26;98595.81;;;12.59;58.83
75996;BME280;64681;49.738;9.004;2023-04-24T09:18:53;98613.84;;;12.62;59.46
75996;BME280;64681;49.738;9.004;2023-04-24T09:21:21;98613.47;;;13.24;58.63
75996;BME280;64681;49.738;9.004;2023-04-24T09:23:58;98622.63;;;13.54;56.87
75996;BME280;64681;49.738;9.004;2023-04-24T09:26:25;98610.09;;;12.66;56.02
75996;BME280;64681;49.738;9.004;2023-04-24T09:28:51;98610.06;;;13.27;54.90
75996;BME280;64681;49.738;9.004;2023-04-24T09:31:18;98602.63;;;12.53;55.39
75996;BME280;64681;49.738;9.004;2023-04-24T09:36:19;98609.06;;;12.75;55.65
75996;BME280;64681;49.738;9.004;2023-04-24T09:38:44;98621.22;;;12.99;55.50
75996;BME280;64681;49.738;9.004;2023-04-24T09:41:13;98650.03;;;13.06;54.02
75996;BME280;64681;49.738;9.004;2023-04-24T09:43:39;98622.28;;;12.64;53.55
75996;BME280;64681;49.738;9.004;2023-04-24T09:46:07;98623.88;;;12.42;55.44
75996;BME280;64681;49.738;9.004;2023-04-24T09:48:37;98628.00;;;13.23;53.34
75996;BME280;64681;49.738;9.004;2023-04-24T09:51:04;98633.19;;;13.09;54.92
75996;BME280;64681;49.738;9.004;2023-04-24T09:53:32;98629.28;;;13.33;53.26
75996;BME280;64681;49.738;9.004;2023-04-24T09:56:11;98639.16;;;14.01;52.28
75996;BME280;64681;49.738;9.004;2023-04-24T09:58:39;98627.56;;;14.38;52.81
75996;BME280;64681;49.738;9.004;2023-04-24T10:01:05;98633.47;;;14.65;49.88
75996;BME280;64681;49.738;9.004;2023-04-24T10:03:33;98634.88;;;15.04;50.55
75996;BME280;64681;49.738;9.004;2023-04-24T10:06:03;98629.84;;;14.99;51.29
75996;BME280;64681;49.738;9.004;2023-04-24T10:08:35;98634.88;;;15.04;51.27
75996;BME280;64681;49.738;9.004;2023-04-24T10:11:01;98624.22;;;15.29;50.46
75996;BME280;64681;49.738;9.004;2023-04-24T10:13:28;98654.28;;;15.67;50.27
75996;BME280;64681;49.738;9.004;2023-04-24T10:15:56;98642.06;;;15.99;48.69
75996;BME280;64681;49.738;9.004;2023-04-24T10:18:22;98669.75;;;14.37;51.47
75996;BME280;64681;49.738;9.004;2023-04-24T10:20:48;98661.94;;;14.66;52.34
75996;BME280;64681;49.738;9.004;2023-04-24T10:23:15;98668.47;;;14.17;52.32
75996;BME280;64681;49.738;9.004;2023-04-24T10:25:40;98681.31;;;13.97;52.75
75996;BME280;64681;49.738;9.004;2023-04-24T10:28:06;98667.03;;;14.30;53.15
75996;BME280;64681;49.738;9.004;2023-04-24T10:30:34;98678.97;;;14.36;52.99
75996;BME280;64681;49.738;9.004;2023-04-24T10:33:05;98671.56;;;14.22;54.33
75996;BME280;64681;49.738;9.004;2023-04-24T10:35:36;98697.00;;;14.88;52.71
75996;BME280;64681;49.738;9.004;2023-04-24T10:38:10;98661.72;;;14.93;50.83
75996;BME280;64681;49.738;9.004;2023-04-24T10:40:37;98717.19;;;14.22;54.48
75996;BME280;64681;49.738;9.004;2023-04-24T10:43:05;98714.50;;;13.81;54.63
75996;BME280;64681;49.738;9.004;2023-04-24T10:45:33;98700.84;;;12.72;58.74
75996;BME280;64681;49.738;9.004;2023-04-24T10:48:02;98700.19;;;13.09;57.48
75996;BME280;64681;49.738;9.004;2023-04-24T10:50:45;98723.06;;;13.29;58.68
75996;BME280;64681;49.738;9.004;2023-04-24T10:53:17;98711.16;;;14.33;54.32
75996;BME280;64681;49.738;9.004;2023-04-24T10:55:51;98717.44;;;14.06;56.62
75996;BME280;64681;49.738;9.004;2023-04-24T10:58:22;98719.91;;;13.51;56.56
75996;BME280;64681;49.738;9.004;2023-04-24T11:00:58;98727.59;;;13.86;56.34
75996;BME280;64681;49.738;9.004;2023-04-24T11:03:28;98727.06;;;14.56;56.28
75996;BME280;64681;49.738;9.004;2023-04-24T11:05:58;98720.72;;;15.42;52.81
75996;BME280;64681;49.738;9.004;2023-04-24T11:08:29;98711.09;;;15.41;52.37
75996;BME280;64681;49.738;9.004;2023-04-24T11:11:06;98712.41;;;14.95;53.20
75996;BME280;64681;49.738;9.004;2023-04-24T11:19:09;98715.09;;;14.01;54.43
75996;BME280;64681;49.738;9.004;2023-04-24T11:21:48;98729.56;;;13.89;56.04
75996;BME280;64681;49.738;9.004;2023-04-24T11:29:43;98711.59;;;13.59;56.46
75996;BME280;64681;49.738;9.004;2023-04-24T11:32:41;98723.06;;;13.90;55.67
75996;BME280;64681;49.738;9.004;2023-04-24T11:35:21;98720.19;;;14.14;55.08
75996;BME280;64681;49.738;9.004;2023-04-24T11:37:52;98716.91;;;14.31;54.19
75996;BME280;64681;49.738;9.004;2023-04-24T11:40:20;98706.88;;;14.69;53.65
75996;BME280;64681;49.738;9.004;2023-04-24T11:42:50;98722.63;;;14.71;53.40
75996;BME280;64681;49.738;9.004;2023-04-24T11:45:20;98704.38;;;15.02;53.24
75996;BME280;64681;49.738;9.004;2023-04-24T11:47:46;98710.91;;;15.89;52.03
75996;BME280;64681;49.738;9.004;2023-04-24T11:50:16;98699.03;;;15.06;52.66
75996;BME280;64681;49.738;9.004;2023-04-24T11:52:44;98690.75;;;15.40;52.07
75996;BME280;64681;49.738;9.004;2023-04-24T11:55:22;98721.59;;;15.67;50.61
75996;BME280;64681;49.738;9.004;2023-04-24T11:57:51;98735.31;;;14.74;52.66
75996;BME280;64681;49.738;9.004;2023-04-24T12:00:27;98721.91;;;13.95;54.08
75996;BME280;64681;49.738;9.004;2023-04-24T12:03:05;98721.78;;;13.47;55.56
75996;BME280;64681;49.738;9.004;2023-04-24T12:05:31;98730.66;;;13.24;56.92
75996;BME280;64681;49.738;9.004;2023-04-24T12:07:57;98735.28;;;13.27;58.90
75996;BME280;64681;49.738;9.004;2023-04-24T12:10:28;98749.25;;;13.67;56.17
75996;BME280;64681;49.738;9.004;2023-04-24T12:12:56;98736.22;;;13.69;55.56
75996;BME280;64681;49.738;9.004;2023-04-24T12:15:22;98743.47;;;13.65;55.83
75996;BME280;64681;49.738;9.004;2023-04-24T12:17:50;98745.13;;;14.14;54.04
75996;BME280;64681;49.738;9.004;2023-04-24T12:20:16;98740.25;;;13.86;53.89
75996;BME280;64681;49.738;9.004;2023-04-24T12:23:02;98741.69;;;14.14;53.72
75996;BME280;64681;49.738;9.004;2023-04-24T12:25:32;98745.81;;;14.04;55.03
75996;BME280;64681;49.738;9.004;2023-04-24T12:30:34;98740.22;;;14.23;52.99
75996;BME280;64681;49.738;9.004;2023-04-24T12:33:02;98744.69;;;14.08;53.95
75996;BME280;64681;49.738;9.004;2023-04-24T12:35:30;98748.50;;;14.49;52.72
75996;BME280;64681;49.738;9.004;2023-04-24T12:38:08;98738.00;;;14.29;52.69
75996;BME280;64681;49.738;9.004;2023-04-24T12:40:34;98730.44;;;14.01;51.75
75996;BME280;64681;49.738;9.004;2023-04-24T12:43:00;98720.00;;;13.58;54.36
75996;BME280;64681;49.738;9.004;2023-04-24T12:45:25;98738.72;;;13.85;55.34
75996;BME280;64681;49.738;9.004;2023-04-24T12:47:53;98751.34;;;14.22;54.45
75996;BME280;64681;49.738;9.004;2023-04-24T12:50:18;98741.81;;;13.87;53.85
75996;BME280;64681;49.738;9.004;2023-04-24T12:52:44;98761.94;;;13.16;56.67
75996;BME280;64681;49.738;9.004;2023-04-24T12:55:12;98759.69;;;12.91;60.33
75996;BME280;64681;49.738;9.004;2023-04-24T12:57:39;98788.50;;;12.28;61.81
75996;BME280;64681;49.738;9.004;2023-04-24T13:00:06;98776.56;;;12.22;63.09
75996;BME280;64681;49.738;9.004;2023-04-24T13:02:33;98788.44;;;12.05;65.50
75996;BME280;64681;49.738;9.004;2023-04-24T13:04:59;98790.13;;;11.74;68.96
75996;BME280;64681;49.738;9.004;2023-04-24T13:07:26;98802.38;;;11.75;69.48
75996;BME280;64681;49.738;9.004;2023-04-24T13:09:54;98791.16;;;11.69;69.69
75996;BME280;64681;49.738;9.004;2023-04-24T13:12:20;98779.50;;;11.58;70.30
75996;BME280;64681;49.738;9.004;2023-04-24T13:14:46;98788.13;;;12.07;71.33
75996;BME280;64681;49.738;9.004;2023-04-24T13:17:12;98790.00;;;12.49;70.69